Accueil
METAR-TAF:

METAR-TAF

Aéroports :

Guernesey,

Aéroport de Guernesey

latitude: 49-26N, longitude: 002-36W, altitude: 102 m

Observation

Le bulletin a été fait il y a 19 minutes, à 09:50 UTC
Vent 6 kt de nord-ouest, variant entre ouest/nord-ouest et nord
Température 11°C
Humidité 71%
Pression 1019 hPa
Visibilité 10 km ou plus
Nuages épars à une hauteur de 1600 ft

METAR: EGJB 280950Z 32006KT 290V350 9999 SCT016 11/06 Q1019

Heure: 11:09 (10:09 UTC)

Prévision

Le bulletin a été fait il y a 2 heures et 17 minutes, à 07:52 UTC
Prévision valable du 28 à 09 UTC au 28 à 18 UTC
Vent 9 kt de nord-ouest
Visibilité 10 km ou plus
Nuages épars à une hauteur de 2000 ft

TAF: EGJB 280752Z 2809/2818 31009KT 9999 SCT020

Observations et prévisions météorologiques de plus de 4000 aéroports (messages METAR et TAF).

Les stations disponibles sont représentées par des disques jaunes et rouges sur la carte.

Passer la souris dessus pour voir le nom de la station.

Cliquer dessus pour voir les observations et prévisions météorologiques.

Pour changer de carte: cliquez sur les boutons verts avec une croix noire pour zoomer, sur le bouton vert avec un tiret pour effectuer un zoom arrière, ou sur les flèches vertes pour les cartes adjacentes.


METAR-TAF: